Carlotta, California
Current Conditions -  °F | °C
As of 3:10 PM on Wednesday 22 Oct 2014 (Local Time) from KFOT Reporting Station
Overcast Overcast  
Wind Chill: 17°   Ceiling: 2900
Heat Index: 17°   Visibility: 10mi
Dew Point: 13°   Wind: 15mph
Humidity: 77%   Direction: 130°SE
Pressure: 30"   Gusts: NA
Location:  40.54°N, 124.06°W
Report Text: KFOT 222210Z AUTO 13013KT 10SM BKN029 OVC035 17/13 A3000 RMK AO1
Loading
Personal Weather Stations






























Interactive Weather Map
Tropical Storm Tracking
New forecast layout! Learn more

10-Day Weather Forecast

Advertisements
Track Severe Weather on mobile